Edgewater, WI (54834)

6:40 PM CDT on August 31, 2016 (GMT -0500)
The Woods | | Change Station

Elev 1214 ft 45.63 °N, 91.57 °W | Updated 8 minutes ago

Mostly Cloudy
Mostly Cloudy
70.2 °F
Feels Like 73 °F
N
1.1
Wind Variable Wind from East

Today
High -- | Low -- °F
--% Chance of Precip.
Yesterday
High -- | Low -- °F
Precip. -- in
Pressure 30.19 in
Visibility 10.0 miles
Clouds Scattered Clouds 5000 ft
Mostly Cloudy 6000 ft
Heat Index 73 °F
Dew Point 61 °F
Humidity 72%
Rainfall 0.00 in
Snow Depth Not available.
6:26 AM 7:44 PM
Waning Crescent, 0% visible
METAR KHYR 312253Z AUTO 02008KT 10SM SCT050 BKN060 23/11 A3018 RMK AO2 SLP222 T02280111
Pressure 30.19 in
Visibility 10.0 miles
Clouds Scattered Clouds 5000 ft
Mostly Cloudy 6000 ft
Heat Index 73 °F
Dew Point 61 °F
Humidity 72%
Rainfall 0.00 in
Snow Depth Not available.
6:26 AM 7:44 PM
Waning Crescent, 0% visible
METAR KHYR 312253Z AUTO 02008KT 10SM SCT050 BKN060 23/11 A3018 RMK AO2 SLP222 T02280111

10-Day Weather Forecast

Almanac

Astronomy

Aug. 31, 2016 Rise Set
Actual Time
Civil Twilight
Nautical Twilight
Astronomical Twilight
Moon
Length of Visible Light
Length of Day
Tomorrow will be .
, % of the Moon is Illuminated

Today's Extremes

State Highs State Lows

Community

WunderPhotos

Upload Photos

1,936,215 photos uploaded!

WunderBlog® & News

Nearby

Air Quality

  Air Quality AQ Index Pollutant
Not available.

Snow Depth

Station Depth Elevation

Earthquake Activity

City Distance Mag. Time & Date
Minimum magnitude displayed is 2.5.

Coastal Water Temperatures

Place Temperature

Stations

Nearby Weather Stations

Station Location Temp. Windchill Dew Point Humidity Wind Precip. Elev Updated Type
                   

Watches & Warnings

There are currently no watches in effect.